Home > Products > Valid Products > MTR

000
SAUS43 KMQT 210757
MTRP53
METAR KP53 210756Z AUTO 02017KT 08/04 A3008 RMK AO1 SLP192 T00780044





000
SAUS43 KMQT 210756
MTRP59
METAR KP59 210751Z AUTO 08013KT 06/02 A3016 RMK AO1 SLP218 T00560017





000
SAUS43 KMQT 210657
MTRP53
METAR KP53 210656Z AUTO 02018KT 08/04 A3006 RMK AO1 SLP184 T00780044





000
SAUS43 KMQT 210656
MTRP59
METAR KP59 210651Z AUTO 06/02 A3015 RMK AO1 SLP214 T00560022





000
SAUS43 KMQT 210557
MTRP53
METAR KP53 210556Z AUTO 02017KT 08/05 A3005 RMK AO1 SLP179 60004
T00780050 10083 20078 53014





000
SAUS43 KMQT 210556
MTRP59
METAR KP59 210551Z AUTO VRB06G18KT 06/02 A3013 RMK AO1 SLP207
T00560017 10072 20056 51014





000
SAUS43 KMQT 210503 COR
MTRP53
METAR KP53 210456Z AUTO 02018KT 08/06 A3003 RMK AO1 SLP174 T00830056
401060078





000
SAUS43 KMQT 210459 COR
MTRP59
METAR KP59 210451Z AUTO 09008G20KT 06/02 A3012 RMK AO1 SLP204
T00560022 400830056





000
SAUS43 KMQT 210357
MTRP53
METAR KP53 210356Z AUTO 01014KT 08/06 A3002 RMK AO1 SLP169 P0002
T00780056





000
SAUS43 KMQT 210357
MTRP53
METAR KP53 210356Z AUTO 01014KT 08/06 A3002 RMK AO1 SLP169 P0002
T00780056





000
SAUS43 KMQT 210356
MTRP59
METAR KP59 210351Z AUTO 07017KT 06/03 A3010 RMK AO1 SLP199 T00560028





000
SAUS43 KMQT 210356
MTRP59
METAR KP59 210351Z AUTO 07017KT 06/03 A3010 RMK AO1 SLP199 T00560028





000
SAUS43 KMQT 210257
MTRP53
METAR KP53 210256Z AUTO 35015KT 08/06 A3000 RMK AO1 SLP165 P0001
60002 T00780056 52016





000
SAUS43 KMQT 210256
MTRP59
METAR KP59 210251Z AUTO 07018KT 06/03 A3008 RMK AO1 SLP193 T00610033
53022





000
SAUS43 KMQT 210157
MTRP53
METAR KP53 210156Z AUTO 35013KT 08/06 A2999 RMK AO1 SLP160 P0001
T00780056





000
SAUS43 KMQT 210157
MTRP53
METAR KP53 210156Z AUTO 35013KT 08/06 A2999 RMK AO1 SLP160 P0001
T00780056





000
SAUS43 KMQT 210156
MTRP59
METAR KP59 210151Z AUTO 06018KT 07/03 A3006 RMK AO1 SLP183 T00670033





000
SAUS43 KMQT 210156
MTRP59
METAR KP59 210151Z AUTO 06018KT 07/03 A3006 RMK AO1 SLP183 T00670033





000
SAUS43 KMQT 210057
MTRP53
METAR KP53 210056Z AUTO 35013KT 08/05 A2997 RMK AO1 SLP154 T00780050





000
SAUS43 KMQT 210056
MTRP59
METAR KP59 210051Z AUTO 06019KT 07/04 A3004 RMK AO1 SLP175 T00670039





000
SAUS43 KMQT 202357
MTRP53
METAR KP53 202356Z AUTO 34013KT 08/05 A2996 RMK AO1 SLP149 T00830050
10089 20083 51022





000
SAUS43 KMQT 202356
MTRP59
METAR KP59 202351Z AUTO 04015G23KT 07/04 A3002 RMK AO1 PK WND
03026/2316 SLP169 T00720039 10078 20072 53027





000
SAUS43 KMQT 202257
MTRP53
METAR KP53 202256Z AUTO 35016KT 08/05 A2994 RMK AO1 SLP142 T00830050





000
SAUS43 KMQT 202255
MTRP59
METAR KP59 202251Z AUTO 04016G22KT 07/04 A2999 RMK AO1 PK WND
03026/2223 SLP158 T00720039





000
SAUS43 KMQT 202157
MTRP53
METAR KP53 202156Z AUTO 35018G24KT 08/05 A2991 RMK AO1 SLP133
T00830050





000
SAUS43 KMQT 202157
MTRP53
METAR KP53 202156Z AUTO 35018G24KT 08/05 A2991 RMK AO1 SLP133
T00830050





000
SAUS43 KMQT 202156
MTRP59
METAR KP59 202151Z AUTO 03019G24KT 07/04 A2996 RMK AO1 PK WND
03026/2123 SLP150 T00720039





000
SAUS43 KMQT 202156
MTRP59
METAR KP59 202151Z AUTO 03019G24KT 07/04 A2996 RMK AO1 PK WND
03026/2123 SLP150 T00720039





000
SAUS43 KMQT 202103 COR
MTRP53
METAR KP53 202056Z AUTO 35016G21KT 08/05 A2989 RMK AO1 SLP126
T00830050 53017





000
SAUS43 KMQT 202100 COR
MTRP59
METAR KP59 202051Z AUTO 03020KT 07/04 A2994 RMK AO1 PK WND
03026/2028 SLP142 T00720039 53017





000
SAUS43 KMQT 202003 COR
MTRP53
METAR KP53 201956Z AUTO 35016KT 08/06 A2987 RMK AO1 SLP117 T00830056





000
SAUS43 KMQT 201956
MTRP59
METAR KP59 201951Z AUTO 03020G26KT 07/04 A2992 RMK AO1 PK WND
02026/1950 SLP135 T00720044





000
SAUS43 KMQT 201857
MTRP53
METAR KP53 201856Z AUTO 34015G22KT 09/06 A2985 RMK AO1 SLP111
T00890056





000
SAUS43 KMQT 201856
MTRP59
METAR KP59 201851Z AUTO 02016KT 07/05 A2990 RMK AO1 SLP129 T00720050





000
SAUS43 KMQT 201757
MTRP53
METAR KP53 201756Z AUTO 35015KT 09/06 A2984 RMK AO1 SLP108 T00890056
10089 20083 50005





000
SAUS43 KMQT 201755
MTRP59
METAR KP59 201751Z AUTO 02017KT 07/05 A2989 RMK AO1 SLP124 T00720050
10083 20072 51013





000
SAUS43 KMQT 201658
MTRP53
METAR KP53 201656Z AUTO 34015G22KT 09/06 A2984 RMK AO1 SLP108
T00890056





000
SAUS43 KMQT 201656
MTRP59
METAR KP59 201651Z AUTO 02018KT 08/05 A2988 RMK AO1 SLP122 T00780050





000
SAUS43 KMQT 201604 COR
MTRP53
METAR KP53 201556Z AUTO 34012KT 09/06 A2983 RMK AO1 SLP106 T00890061





000
SAUS43 KMQT 201555
MTRP59
METAR KP59 201551Z AUTO 02014KT 08/05 A2987 RMK AO1 SLP118 T00780050





000
SAUS43 KMQT 201503 COR
MTRP53
METAR KP53 201456Z AUTO 35013KT 09/06 A2982 RMK AO1 SLP102 T00890061
51019





000
SAUS43 KMQT 201500 COR
MTRP59
METAR KP59 201451Z AUTO 02016KT 08/06 A2985 RMK AO1 SLP111 T00780056
51016





000
SAUS43 KMQT 201357
MTRP53
METAR KP53 201356Z AUTO 35012KT 09/06 A2981 RMK AO1 SLP098 T00890061





000
SAUS43 KMQT 201356
MTRP59
METAR KP59 201351Z AUTO 03015KT 08/06 A2983 RMK AO1 SLP106 T00780056





000
SAUS43 KMQT 201303 COR
MTRP53
METAR KP53 201256Z AUTO 34012G19KT 09/06 A2979 RMK AO1 SLP092
T00890061





000
SAUS43 KMQT 201255
MTRP59
METAR KP59 201251Z AUTO 03016KT 08/06 A2982 RMK AO1 SLP101 T00830056





000
SAUS43 KMQT 201203 COR
MTRP53
METAR KP53 201156Z AUTO 34013KT 09/06 A2977 RMK AO1 SLP083 70010
T00890061 10106 20083 51009





000
SAUS43 KMQT 201156
MTRP59
METAR KP59 201151Z AUTO 01017KT 08/06 A2980 RMK AO1 SLP094 70003
T00830056 10083 20078 51014





000
SAUS43 KMQT 201103 COR
MTRP53
METAR KP53 201056Z AUTO 33010KT 09/06 A2976 RMK AO1 SLP080 T00890056





000
SAUS43 KMQT 201055
MTRP59
METAR KP59 201051Z AUTO 02014KT 08/06 A2978 RMK AO1 SLP089 T00830056





000
SAUS43 KMQT 201055
MTRP59
METAR KP59 201051Z AUTO 02014KT 08/06 A2978 RMK AO1 SLP089 T00830056





000
SAUS43 KMQT 201003 COR
MTRP53
METAR KP53 200956Z AUTO 32010KT 09/06 A2975 RMK AO1 SLP077 T00890056





000
SAUS43 KMQT 201003 COR
MTRP53
METAR KP53 200956Z AUTO 32010KT 09/06 A2975 RMK AO1 SLP077 T00890056





000
SAUS43 KMQT 200955
MTRP59
METAR KP59 200951Z AUTO 02012KT 08/06 A2977 RMK AO1 SLP086 T00780056





000
SAUS43 KMQT 200955
MTRP59
METAR KP59 200951Z AUTO 02012KT 08/06 A2977 RMK AO1 SLP086 T00780056





000
SAUS43 KMQT 200903 COR
MTRP53
METAR KP53 200856Z AUTO 32009G18KT 09/07 A2974 RMK AO1 SLP073
T00940067 53008





000
SAUS43 KMQT 200859 COR
MTRP59
METAR KP59 200851Z AUTO 01011KT 08/06 A2976 RMK AO1 SLP080 T00780056
51008





000
SAUS43 KMQT 200757
MTRP53
METAR KP53 200756Z AUTO 32006KT 10/07 A2972 RMK AO1 SLP068 T01000067





000
SAUS43 KMQT 200756
MTRP59
METAR KP59 200751Z AUTO 02011KT 08/06 A2975 RMK AO1 SLP077 T00780056





000
SAUS43 KMQT 200703 COR
MTRP53
METAR KP53 200656Z AUTO 29004KT 11/07 A2971 RMK AO1 SLP065 T01060067





000
SAUS43 KMQT 200700 COR
MTRP59
METAR KP59 200651Z AUTO 01010KT 08/06 A2974 RMK AO1 SLP076 T00780056





000
SAUS43 KMQT 200603 COR
MTRP53
METAR KP53 200556Z AUTO 00000KT 10/07 A2972 RMK AO1 SLP065 T01000072
10106 20094 56006





000
SAUS43 KMQT 200600 COR
MTRP59
METAR KP59 200551Z AUTO 02010KT 08/06 A2973 RMK AO1 SLP072 T00830056
10089 20078 53005





000
SAUS43 KMQT 200457
MTRP53
METAR KP53 200456Z AUTO 23004KT 10/07 A2972 RMK AO1 SLP065 T01000072
401111006





000
SAUS43 KMQT 200456
MTRP59
METAR KP59 200451Z AUTO 01008KT 08/06 A2972 RMK AO1 SLP069 T00830056
400890000





000
SAUS43 KMQT 200358
MTRP53
METAR KP53 200356Z AUTO 21008KT 10/07 A2972 RMK AO1 SLP066 T01000072





000
SAUS43 KMQT 200356
MTRP59
METAR KP59 200351Z AUTO 34006KT 09/06 A2972 RMK AO1 SLP068 T00890056





000
SAUS43 KMQT 200303 COR
MTRP53
METAR KP53 200256Z AUTO 20007KT 10/08 A2973 RMK AO1 SLP072 T01000078
58015





000
SAUS43 KMQT 200258
MTRP59
METAR KP59 200251Z AUTO VRB05KT 08/06 A2972 RMK AO1 SLP068 T00830056
56006





000
SAUS43 KMQT 200157
MTRP53
METAR KP53 200156Z AUTO 20008KT 10/07 A2976 RMK AO1 SLP081 T01000072





000
SAUS43 KMQT 200156
MTRP59
METAR KP59 200151Z AUTO VRB04KT 08/06 A2972 RMK AO1 SLP071 T00780061





000
SAUS43 KMQT 200103 COR
MTRP53
METAR KP53 200056Z AUTO 19009G17KT 10/07 A2977 RMK AO1 SLP087
T01000072





000
SAUS43 KMQT 200055
MTRP59
METAR KP59 200051Z AUTO 23007KT 08/06 A2973 RMK AO1 SLP072 T00830061





000
SAUS43 KMQT 192357
MTRP53
METAR KP53 192356Z AUTO 20010G20KT 09/07 A2978 RMK AO1 SLP090 P0001
60010 T00940072 10111 20089 55007





000
SAUS43 KMQT 192357
MTRP53
METAR KP53 192356Z AUTO 20010G20KT 09/07 A2978 RMK AO1 SLP090 P0001
60010 T00940072 10111 20089 55007





000
SAUS43 KMQT 192356
MTRP59
METAR KP59 192351Z AUTO 23007KT 09/06 A2973 RMK AO1 SLP075 60003
T00890056 10089 20067 56003





000
SAUS43 KMQT 192356
MTRP59
METAR KP59 192351Z AUTO 23007KT 09/06 A2973 RMK AO1 SLP075 60003
T00890056 10089 20067 56003





000
SAUS43 KMQT 192303 COR
MTRP53
METAR KP53 192256Z AUTO 19010G20KT 09/07 A2977 RMK AO1 SLP086 P0005
T00890067





000
SAUS43 KMQT 192303 COR
MTRP53
METAR KP53 192256Z AUTO 19010G20KT 09/07 A2977 RMK AO1 SLP086 P0005
T00890067





000
SAUS43 KMQT 192256
MTRP59
METAR KP59 192251Z AUTO 23006KT 08/06 A2974 RMK AO1 SLP075 T00830056





000
SAUS43 KMQT 192256
MTRP59
METAR KP59 192251Z AUTO 23006KT 08/06 A2974 RMK AO1 SLP075 T00830056





000
SAUS43 KMQT 192157
MTRP53
METAR KP53 192156Z AUTO 17013KT 09/06 A2977 RMK AO1 SLP085 P0004
T00940061





000
SAUS43 KMQT 192156
MTRP59
METAR KP59 192151Z AUTO 22005KT 08/06 A2973 RMK AO1 SLP076 T00830056





000
SAUS43 KMQT 192057
MTRP53
METAR KP53 192056Z AUTO 18010G18KT 10/04 A2980 RMK AO1 SLP097
T01000039 58041





000
SAUS43 KMQT 192056
MTRP59
METAR KP59 192051Z AUTO 22007KT 08/06 A2974 RMK AO1 SLP079 P0001
60003 T00780056 56030





000
SAUS43 KMQT 191957
MTRP53
METAR KP53 191956Z AUTO 19009G16KT 11/02 A2985 RMK AO1 SLP113
T01060022





000
SAUS43 KMQT 191956
MTRP59
METAR KP59 191951Z AUTO VRB05KT 07/04 A2977 RMK AO1 SLP086 T00720044





000
SAUS43 KMQT 191857
MTRP53
METAR KP53 191856Z AUTO 18011KT 11/02 A2988 RMK AO1 SLP123 T01060017





000
SAUS43 KMQT 191855
MTRP59
METAR KP59 191851Z AUTO 21009G18KT 07/03 A2977 RMK AO1 SLP089 P0002
T00670033





000
SAUS43 KMQT 191757
MTRP53
METAR KP53 191756Z AUTO 19011G16KT 10/01 A2992 RMK AO1 SLP138
T01000011 10100 20006 58034





000
SAUS43 KMQT 191756
MTRP59
METAR KP59 191751Z AUTO 24008G14KT 07/03 A2984 RMK AO1 SLP111
T00670028 10072 20022 58031





000
SAUS43 KMQT 191657
MTRP53
METAR KP53 191656Z AUTO 19007G17KT 09/02 A2997 RMK AO1 SLP153
T00940017





000
SAUS43 KMQT 191656
MTRP59
METAR KP59 191651Z AUTO 24009G17KT 07/02 A2987 RMK AO1 SLP122
T00670017





000
SAUS43 KMQT 191557
MTRP53
METAR KP53 191556Z AUTO 19013G18KT 08/03 A2998 RMK AO1 SLP158
T00830028





000
SAUS43 KMQT 191556
MTRP59
METAR KP59 191551Z AUTO 22008KT 06/01 A2991 RMK AO1 SLP136 T00560011





000
SAUS43 KMQT 191457
MTRP53
METAR KP53 191456Z AUTO 19008KT 06/02 A3002 RMK AO1 SLP172 T00610022
58017





000
SAUS43 KMQT 191456
MTRP59
METAR KP59 191451Z AUTO 23009G15KT 04/01 A2993 RMK AO1 SLP144
T00440006 58023





000
SAUS43 KMQT 191357
MTRP53
METAR KP53 191356Z AUTO 19009KT 03/00 A3004 RMK AO1 SLP180 T00330000





000
SAUS43 KMQT 191356
MTRP59
METAR KP59 191351Z AUTO 23008KT 04/00 A2996 RMK AO1 SLP154 T00390000





000
SAUS43 KMQT 191303 COR
MTRP53
METAR KP53 191256Z AUTO 20010KT 01/M02 A3006 RMK AO1 SLP186
T00111017





000
SAUS43 KMQT 191259 COR
MTRP59
METAR KP59 191251Z AUTO 23008KT 03/00 A2998 RMK AO1 SLP162 T00280000





000
SAUS43 KMQT 191157
MTRP53
METAR KP53 191156Z AUTO 20008KT 01/M02 A3007 RMK AO1 SLP192
T00061017 10011 21006 58010





000
SAUS43 KMQT 191156
MTRP59
METAR KP59 191151Z AUTO 24008KT 02/M01 A3000 RMK AO1 SLP168
T00221006 10022 20000 57021





000
SAUS43 KMQT 191104 COR
MTRP53
METAR KP53 191056Z AUTO 20007KT 00/M02 A3009 RMK AO1 SLP198
T00001022





000
SAUS43 KMQT 191057
MTRP53
METAR KP53 191056Z AUTO 20007KT 00/M02 A3009 RMK AO1 SLP198
T00001022





000
SAUS43 KMQT 191056
MTRP59
METAR KP59 191051Z AUTO 24008KT 02/M01 A3001 RMK AO1 SLP171
T00221006





000
SAUS43 KMQT 191003 COR
MTRP53
METAR KP53 190956Z AUTO 00000KT M01/M03 A3012 RMK AO1 SLP206
T10061028





000
SAUS43 KMQT 190959 COR
MTRP59
METAR KP59 190951Z AUTO 24006KT 02/M01 A3005 RMK AO1 SLP184
T00171006





000
SAUS43 KMQT 190959 COR
MTRP59
METAR KP59 190951Z AUTO 24006KT 02/M01 A3005 RMK AO1 SLP184
T00171006





000
SAUS43 KMQT 190903 COR
MTRP53
METAR KP53 190856Z AUTO 18005KT M01/M02 A3010 RMK AO1 SLP202
T10061022 56012





000
SAUS43 KMQT 190900 COR
MTRP59
METAR KP59 190851Z AUTO 24006KT 02/M01 A3006 RMK AO1 SLP189
T00171006 56015





000
SAUS43 KMQT 190808 COR
MTRP53
METAR KP53 190556Z AUTO 18005KT 01/M02 A3014 RMK AO1 SLP213
T0
NO CARRIER

RING

CONNECT 1200





000
SAUS43 KMQT 190757
MTRP53
METAR KP53 190756Z AUTO 19007KT 00/M02 A3011 RMK AO1 SLP203
T00001022





000
SAUS43 KMQT 190756
MTRP59
METAR KP59 190751Z AUTO 21003KT 01/M01 A3008 RMK AO1 SLP194
T00111006





000
SAUS43 KMQT 190657
MTRP53
METAR KP53 190656Z AUTO 22005KT 00/M02 A3013 RMK AO1 SLP209
T00001022





000
SAUS43 KMQT 190656
MTRP59
METAR KP59 190651Z AUTO 00000KT 01/M01 A3008 RMK AO1 SLP196
T00111011





000
SAUS43 KMQT 190555
MTRP59
METAR KP59 190551Z AUTO 25003KT 01/M02 A3011 RMK AO1 SLP204
T00061017 10017 20000 56015





000
SAUS43 KMQT 190503 COR
MTRP53
METAR KP53 190456Z AUTO 18005KT 01/M02 A3014 RMK AO1 SLP215
T00111017 400720011





000
SAUS43 KMQT 190456
MTRP59
METAR KP59 190451Z AUTO 23003KT 01/M02 A3011 RMK AO1 SLP207
T00111017 400610000





000
SAUS43 KMQT 190456
MTRP59
METAR KP59 190451Z AUTO 23003KT 01/M02 A3011 RMK AO1 SLP207
T00111017 400610000





000
SAUS43 KMQT 190357
MTRP53
METAR KP53 190356Z AUTO 30003KT 04/M01 A3015 RMK AO1 SLP216
T00391006





000
SAUS43 KMQT 190357
MTRP53
METAR KP53 190356Z AUTO 30003KT 04/M01 A3015 RMK AO1 SLP216
T00391006





000
SAUS43 KMQT 190356
MTRP59
METAR KP59 190351Z AUTO 23004KT 01/M02 A3013 RMK AO1 SLP212
T00111017





000
SAUS43 KMQT 190356
MTRP59
METAR KP59 190351Z AUTO 23004KT 01/M02 A3013 RMK AO1 SLP212
T00111017





000
SAUS43 KMQT 190257
MTRP53
METAR KP53 190256Z AUTO 36009KT 04/M01 A3015 RMK AO1 SLP216
T00441006 58006





000
SAUS43 KMQT 190256
MTRP59
METAR KP59 190251Z AUTO VRB03KT 01/M02 A3015 RMK AO1 SLP220
T00061022 56004





000
SAUS43 KMQT 190157
MTRP53
METAR KP53 190156Z AUTO 01011KT 05/M01 A3017 RMK AO1 SLP221
T00501006





000
SAUS43 KMQT 190156
MTRP59
METAR KP59 190151Z AUTO 26004KT 01/M02 A3015 RMK AO1 SLP220
T00061022





000
SAUS43 KMQT 190057
MTRP53
METAR KP53 190056Z AUTO 36011KT 04/M01 A3017 RMK AO1 SLP224
T00441006





000
SAUS43 KMQT 190056
MTRP59
METAR KP59 190051Z AUTO 25004KT 01/M02 A3016 RMK AO1 SLP222
T00061022





000
SAUS43 KMQT 182357
MTRP53
METAR KP53 182356Z AUTO 36014KT 05/00 A3017 RMK AO1 SLP222 T00500000
10056 20044 51004





000
SAUS43 KMQT 182356
MTRP59
METAR KP59 182351Z AUTO 25003KT 02/M02 A3016 RMK AO1 SLP224
T00171017 10044 20017 56005





000
SAUS43 KMQT 182257
MTRP53
METAR KP53 182256Z AUTO 01013KT 05/00 A3016 RMK AO1 SLP220 T00500000





000
SAUS43 KMQT 182256
MTRP59
METAR KP59 182251Z AUTO 36006KT 04/M01 A3017 RMK AO1 SLP222
T00391006





000
SAUS43 KMQT 182157
MTRP53
METAR KP53 182156Z AUTO 35013G20KT 05/M01 A3016 RMK AO1 SLP220
T00501006





000
SAUS43 KMQT 182156
MTRP59
METAR KP59 182151Z AUTO 36008KT 04/M01 A3017 RMK AO1 SLP225
T00391006





000
SAUS43 KMQT 182103 COR
MTRP53
METAR KP53 182056Z AUTO 35014KT 05/00 A3016 RMK AO1 SLP217 T00500000
51008





000
SAUS43 KMQT 182100 COR
MTRP59
METAR KP59 182051Z AUTO 36008KT 04/M01 A3018 RMK AO1 SLP227
T00391011 55000





000
SAUS43 KMQT 181957
MTRP53
METAR KP53 181956Z AUTO 36016KT 04/01 A3015 RMK AO1 SLP216 T00440006





000
SAUS43 KMQT 181957
MTRP53
METAR KP53 181956Z AUTO 36016KT 04/01 A3015 RMK AO1 SLP216 T00440006





000
SAUS43 KMQT 181955
MTRP59
METAR KP59 181951Z AUTO 03010KT 04/M01 A3017 RMK AO1 SLP225
T00391011





000
SAUS43 KMQT 181955
MTRP59
METAR KP59 181951Z AUTO 03010KT 04/M01 A3017 RMK AO1 SLP225
T00391011





000
SAUS43 KMQT 181857
MTRP53
METAR KP53 181856Z AUTO 36015G22KT 05/00 A3014 RMK AO1 PK WND
01027/1842 SLP211 T00500000





000
SAUS43 KMQT 181856
MTRP59
METAR KP59 181851Z AUTO 02012KT 04/M02 A3017 RMK AO1 SLP224
T00391017





000
SAUS43 KMQT 181803 COR
MTRP53
METAR KP53 181756Z AUTO 34015G24KT 05/00 A3013 RMK AO1 SLP209
T00500000 10056 20044 51012





000
SAUS43 KMQT 181759 COR
MTRP59
METAR KP59 181751Z AUTO 04010KT 03/M01 A3018 RMK AO1 SLP227
T00331006 10039 20033 51006





000
SAUS43 KMQT 181657
MTRP53
METAR KP53 181656Z AUTO 35016KT 04/01 A3013 RMK AO1 PK WND
36026/1558 SLP209 T00440006





000
SAUS43 KMQT 181657
MTRP53
METAR KP53 181656Z AUTO 35016KT 04/01 A3013 RMK AO1 PK WND
36026/1558 SLP209 T00440006





000
SAUS43 KMQT 181656
MTRP59
METAR KP59 181651Z AUTO 05012G17KT 03/M01 A3018 RMK AO1 SLP227
T00331011





000
SAUS43 KMQT 181656
MTRP59
METAR KP59 181651Z AUTO 05012G17KT 03/M01 A3018 RMK AO1 SLP227
T00331011





000
SAUS43 KMQT 181603 COR
MTRP53
METAR KP53 181556Z AUTO 36021G27KT 05/01 A3011 RMK AO1 PK WND
36027/1555 SLP203 T00500011





000
SAUS43 KMQT 181603 COR
MTRP53
METAR KP53 181556Z AUTO 36021G27KT 05/01 A3011 RMK AO1 PK WND
36027/1555 SLP203 T00500011





000
SAUS43 KMQT 181559 COR
MTRP59
METAR KP59 181551Z AUTO 04011G19KT 04/M01 A3017 RMK AO1 SLP223
T00391011





000
SAUS43 KMQT 181559 COR
MTRP59
METAR KP59 181551Z AUTO 04011G19KT 04/M01 A3017 RMK AO1 SLP223
T00391011





000
SAUS43 KMQT 181458
MTRP53
METAR KP53 181456Z AUTO 01020KT 06/01 A3010 RMK AO1 PK WND
36027/1444 SLP197 T00560006 51025





000
SAUS43 KMQT 181458
MTRP53
METAR KP53 181456Z AUTO 01020KT 06/01 A3010 RMK AO1 PK WND
36027/1444 SLP197 T00560006 51025





000
SAUS43 KMQT 181456
MTRP59
METAR KP59 181451Z AUTO 04013G20KT 04/M01 A3016 RMK AO1 SLP220
T00391011 51024





000
SAUS43 KMQT 181456
MTRP59
METAR KP59 181451Z AUTO 04013G20KT 04/M01 A3016 RMK AO1 SLP220
T00391011 51024





000
SAUS43 KMQT 181357
MTRP53
METAR KP53 181356Z AUTO 36020G28KT 06/01 A3007 RMK AO1 PK WND
01028/1351 SLP189 T00560011





000
SAUS43 KMQT 181356
MTRP59
METAR KP59 181351Z AUTO 05014KT 04/M01 A3014 RMK AO1 PK WND
06027/1310 SLP214 T00391006





000
SAUS43 KMQT 181303 COR
MTRP53
METAR KP53 181256Z AUTO 36018G26KT 06/01 A3005 RMK AO1 PK WND
01026/1242 SLP180 T00560006





000
SAUS43 KMQT 181259 COR
MTRP59
METAR KP59 181251Z AUTO 05020G26KT 04/M01 A3011 RMK AO1 PK WND
06028/1234 SLP204 T00391006





000
SAUS43 KMQT 181205 COR
MTRP53
METAR KP53 181156Z AUTO 36019KT 06/01 A3002 RMK AO1 PK WND
01026/1125 SLP171 60003 70054 T00560006 10067 20056 51031





000
SAUS43 KMQT 181204 COR
MTRP53
METAR KP53 181156Z AUTO 36019KT 06/01 A3002 RMK AO1 PK WND
01026/1125 SLP171 60003 70054 T00560006 10067 20056 51031





000
SAUS43 KMQT 181200 COR
MTRP59
METAR KP59 181151Z AUTO 05020G25KT 04/00 A3009 RMK AO1 PK WND
06029/1055 SLP196 70032 T00390000 10061 20039 51028





000
SAUS43 KMQT 181103 COR
MTRP53
METAR KP53 181056Z AUTO 35019G28KT 06/01 A2999 RMK AO1 PK WND
01029/1008 SLP162 T00560011





000
SAUS43 KMQT 181103 COR
MTRP53
METAR KP53 181056Z AUTO 35019G28KT 06/01 A2999 RMK AO1 PK WND
01029/1008 SLP162 T00560011





000
SAUS43 KMQT 181056
MTRP59
METAR KP59 181051Z AUTO 05019G24KT 04/M01 A3006 RMK AO1 PK WND
05027/1025 SLP185 T00441006





000
SAUS43 KMQT 181056
MTRP59
METAR KP59 181051Z AUTO 05019G24KT 04/M01 A3006 RMK AO1 PK WND
05027/1025 SLP185 T00441006





000
SAUS43 KMQT 181003 COR
MTRP53
METAR KP53 180956Z AUTO 36015G26KT 06/02 A2996 RMK AO1 PK WND
01028/0946 SLP149 T00610017





000
SAUS43 KMQT 180958 COR
MTRP59
METAR KP59 180951Z AUTO 04016G26KT 04/00 A3004 RMK AO1 PK WND
05028/0920 SLP178 T00440000





000
SAUS43 KMQT 180857
MTRP53
METAR KP53 180856Z AUTO 35017G27KT 06/02 A2993 RMK AO1 PK WND
01035/0817 SLP138 60003 T00610022 53019





000
SAUS43 KMQT 180856
MTRP59
METAR KP59 180851Z AUTO 04017G27KT 05/00 A3001 RMK AO1 PK WND
05027/0820 SLP167 T00500000 51016





    US Dept of Commerce
    National Oceanic and Atmospheric Administration
    National Weather Service
    1325 East West Highway
    Silver Spring, MD 20910
    Page Author: NWS Internet Services Team
Disclaimer
Information Quality
Credits
Glossary
Privacy Policy
Freedom of Information Act (FOIA)
About Us
Career Opportunities